Courage — WDC6907 — position and weather

sailwx.info

Track history (hours):
 
Tides and Currents Weather Stations Pressure Air Temp Water Temp Dewpoint Dewpoint Depression Visibility Wind Speed Wind Dir Waves Ship Positions

Courage

Owner: Crowley Technical Management, Inc, Jacksonville, FL. More information available from US FCC via Universal Licensing System and Coast Guard Vessel Documentation Center.

Last reported at 2014-Oct-22 12:33 UTC. Time now 2014-Oct-23 06:41 UTC.
Position N 26°56' W 079°46'.

Type: Ship. MMSI: 367063050.

Date/timePositionNaut miles runAvg speedWind from/ knotsBaromVisibWave heightAir tempDewpointWater temp
2014-Oct-22 12:33N 26°56' W 079°46'1616.0
2014-Oct-22 11:31N 26°40' W 079°47'1616.2
2014-Oct-22 10:33N 26°24' W 079°48'1616.3
2014-Oct-22 09:33N 26°08' W 079°47'1616.4
2014-Oct-22 08:33N 25°52' W 079°51'1717.0
2014-Oct-22 07:33N 25°35' W 079°55'  
2014-Oct-19 21:08N 29°21' W 094°46'2 0.2
2014-Oct-19 10:30N 29°19' W 094°47'  
2014-Oct-16 01:28N 25°08' W 080°08'1412.4
2014-Oct-16 00:20N 25°21' W 080°02'1112.9
2014-Oct-15 23:31N 25°31' W 080°02'1212.2
2014-Oct-15 22:33N 25°43' W 080°00'1212.4
2014-Oct-15 21:33N 25°55' W 079°59'1212.5
2014-Oct-15 20:34N 26°08' W 079°58'1211.8
2014-Oct-15 19:34N 26°19' W 079°57'1111.2
2014-Oct-15 18:34N 26°31' W 079°56'1212.2
2014-Oct-15 17:33N 26°43' W 079°55'9 9.1
2014-Oct-15 16:34N 26°52' W 079°55'8 8.2
2014-Oct-15 15:33N 27°00' W 079°56'9 8.2
2014-Oct-15 14:26N 27°09' W 079°57'  
Track history (hours):
 
Tides and Currents Weather Stations Pressure Air Temp Water Temp Dewpoint Dewpoint Depression Visibility Wind Speed Wind Dir Waves Ship Positions

Courage

Owner: Crowley Technical Management, Inc, Jacksonville, FL. More information available from US FCC via Universal Licensing System and Coast Guard Vessel Documentation Center.

Last reported at 2014-Oct-22 12:33 UTC. Time now 2014-Oct-23 06:41 UTC.
Position N 26°56' W 079°46'.

Type: Ship. MMSI: 367063050.

Date/timePositionNaut miles runAvg speedWind from/ knotsBaromVisibWave heightAir tempDewpointWater temp
2014-Oct-22 12:33N 26°56' W 079°46'1616.0
2014-Oct-22 11:31N 26°40' W 079°47'1616.2
2014-Oct-22 10:33N 26°24' W 079°48'1616.3
2014-Oct-22 09:33N 26°08' W 079°47'1616.4
2014-Oct-22 08:33N 25°52' W 079°51'1717.0
2014-Oct-22 07:33N 25°35' W 079°55'  
2014-Oct-19 21:08N 29°21' W 094°46'2 0.2
2014-Oct-19 10:30N 29°19' W 094°47'  
2014-Oct-16 01:28N 25°08' W 080°08'1412.4
2014-Oct-16 00:20N 25°21' W 080°02'1112.9
2014-Oct-15 23:31N 25°31' W 080°02'1212.2
2014-Oct-15 22:33N 25°43' W 080°00'1212.4
2014-Oct-15 21:33N 25°55' W 079°59'1212.5
2014-Oct-15 20:34N 26°08' W 079°58'1211.8
2014-Oct-15 19:34N 26°19' W 079°57'1111.2
2014-Oct-15 18:34N 26°31' W 079°56'1212.2
2014-Oct-15 17:33N 26°43' W 079°55'9 9.1
2014-Oct-15 16:34N 26°52' W 079°55'8 8.2
2014-Oct-15 15:33N 27°00' W 079°56'9 8.2
2014-Oct-15 14:26N 27°09' W 079°57'  

Dump ship's entire track history